createdAt,value
2023-04-16T00:00:48.501Z,1.80
2023-04-16T00:03:16.698Z,1.95
2023-04-16T00:05:44.209Z,1.92
2023-04-16T00:08:11.588Z,1.25
2023-04-16T00:10:39.259Z,1.37
2023-04-16T00:13:06.616Z,1.60
2023-04-16T00:15:34.163Z,1.45
2023-04-16T00:18:01.859Z,1.75
2023-04-16T00:20:29.317Z,2.12
2023-04-16T00:22:56.692Z,2.15
2023-04-16T00:25:24.513Z,1.37
2023-04-16T00:27:51.900Z,1.75
2023-04-16T00:30:19.551Z,2.05
2023-04-16T00:32:47.426Z,1.70
2023-04-16T00:35:14.836Z,1.70
2023-04-16T00:37:42.336Z,1.73
2023-04-16T00:40:10.845Z,1.02
2023-04-16T00:42:38.944Z,1.48
2023-04-16T00:45:06.919Z,1.45
2023-04-16T00:47:34.686Z,2.08
2023-04-16T00:50:04.404Z,1.60
2023-04-16T00:52:32.881Z,1.50
2023-04-16T00:55:00.930Z,1.25
2023-04-16T00:57:28.368Z,2.37
2023-04-16T00:59:56.506Z,2.75
2023-04-16T01:02:24.741Z,2.92
2023-04-16T01:04:52.290Z,2.85
2023-04-16T01:07:19.979Z,1.55
2023-04-16T01:09:47.620Z,2.00
2023-04-16T01:12:15.047Z,1.73
2023-04-16T01:14:42.705Z,1.75
2023-04-16T01:17:10.620Z,1.30
2023-04-16T01:19:38.560Z,1.60
2023-04-16T01:22:06.147Z,0.73
2023-04-16T01:24:35.821Z,1.15
2023-04-16T01:27:03.560Z,0.85
2023-04-16T01:29:31.047Z,1.67
2023-04-16T01:31:59.064Z,1.98
2023-04-16T01:34:26.666Z,1.48
2023-04-16T01:36:54.062Z,1.60
2023-04-16T01:39:22.361Z,2.05
2023-04-16T01:41:49.814Z,1.48
2023-04-16T01:44:17.214Z,0.70
2023-04-16T01:46:45.243Z,1.98
2023-04-16T01:49:12.770Z,1.62
2023-04-16T01:51:40.194Z,1.30
2023-04-16T01:54:08.075Z,1.92
2023-04-16T01:56:35.502Z,0.98
2023-04-16T01:59:03.285Z,1.10
2023-04-16T02:01:31.959Z,0.80
2023-04-16T02:04:00.209Z,1.55
2023-04-16T02:06:27.901Z,1.23
2023-04-16T02:08:55.627Z,0.98
2023-04-16T02:11:23.353Z,1.15
2023-04-16T02:13:51.307Z,1.98
2023-04-16T02:16:18.929Z,1.90
2023-04-16T02:18:47.759Z,2.08
2023-04-16T02:21:15.686Z,1.35
2023-04-16T02:23:45.923Z,2.35
2023-04-16T02:26:13.700Z,1.62
2023-04-16T02:28:41.833Z,1.05
2023-04-16T02:31:09.819Z,1.87
2023-04-16T02:33:38.326Z,1.45
2023-04-16T02:36:06.322Z,1.55
2023-04-16T02:38:33.763Z,1.05
2023-04-16T02:41:01.210Z,1.50
2023-04-16T02:43:29.182Z,1.45
2023-04-16T02:45:56.648Z,2.28
2023-04-16T02:48:24.087Z,1.30
2023-04-16T02:50:51.761Z,1.05
2023-04-16T02:53:19.152Z,2.15
2023-04-16T02:55:53.803Z,1.87
2023-04-16T02:58:22.866Z,2.45
2023-04-16T03:00:51.042Z,3.62
2023-04-16T03:03:18.993Z,1.98
2023-04-16T03:05:47.133Z,1.98
2023-04-16T03:08:14.594Z,2.72
2023-04-16T03:10:42.118Z,1.65
2023-04-16T03:13:09.837Z,2.47
2023-04-16T03:15:37.425Z,2.45
2023-04-16T03:18:04.860Z,1.87
2023-04-16T03:20:32.713Z,2.30
2023-04-16T03:23:00.188Z,2.17
2023-04-16T03:25:28.591Z,1.75
2023-04-16T03:27:56.893Z,2.55
2023-04-16T03:30:24.620Z,2.78
2023-04-16T03:32:52.178Z,2.58
2023-04-16T03:35:19.961Z,3.08
2023-04-16T03:37:47.454Z,2.00
2023-04-16T03:40:15.402Z,2.97
2023-04-16T03:42:43.309Z,2.17
2023-04-16T03:45:11.268Z,2.72
2023-04-16T03:47:38.772Z,1.98
2023-04-16T03:50:06.838Z,1.67
2023-04-16T03:52:34.254Z,3.60
2023-04-16T03:55:03.804Z,3.30
2023-04-16T03:57:31.715Z,3.28
2023-04-16T04:00:00.326Z,3.05
2023-04-16T04:02:28.451Z,2.47
2023-04-16T04:04:56.326Z,3.00
2023-04-16T04:07:23.904Z,1.95
2023-04-16T04:09:52.445Z,2.15
2023-04-16T04:12:20.132Z,3.12
2023-04-16T04:14:47.606Z,3.08
2023-04-16T04:17:15.218Z,2.87
2023-04-16T04:19:54.298Z,2.70
2023-04-16T04:22:28.558Z,2.58
2023-04-16T04:24:56.259Z,2.45
2023-04-16T04:27:23.877Z,3.72
2023-04-16T04:29:51.594Z,4.15
2023-04-16T04:32:19.624Z,3.70
2023-04-16T04:34:48.546Z,2.30
2023-04-16T04:37:16.143Z,2.25
2023-04-16T04:39:44.221Z,1.87
2023-04-16T04:42:12.491Z,2.10
2023-04-16T04:44:39.981Z,1.37
2023-04-16T04:47:08.926Z,2.20
2023-04-16T04:49:36.362Z,2.35
2023-04-16T04:52:03.845Z,1.33
2023-04-16T04:54:32.827Z,1.77
2023-04-16T04:57:01.240Z,1.48
2023-04-16T04:59:29.388Z,1.90
2023-04-16T05:01:57.365Z,2.50
2023-04-16T05:04:24.826Z,2.33
2023-04-16T05:06:52.236Z,2.08
2023-04-16T05:09:19.950Z,1.67
2023-04-16T05:11:47.303Z,1.45
2023-04-16T05:14:14.691Z,1.52
2023-04-16T05:16:42.450Z,2.03
2023-04-16T05:19:10.153Z,2.47
2023-04-16T05:21:37.704Z,1.33
2023-04-16T05:24:06.140Z,2.17
2023-04-16T05:26:33.568Z,1.75
2023-04-16T05:29:00.998Z,2.05
2023-04-16T05:31:28.748Z,1.27
2023-04-16T05:33:56.228Z,2.28
2023-04-16T05:36:23.726Z,3.42
2023-04-16T05:38:51.372Z,1.77
2023-04-16T05:41:18.743Z,2.95
2023-04-16T05:43:46.164Z,2.90
2023-04-16T05:46:13.874Z,2.35
2023-04-16T05:48:41.301Z,2.15
2023-04-16T05:51:08.726Z,2.47
2023-04-16T05:53:36.486Z,2.72
2023-04-16T05:56:03.960Z,1.83
2023-04-16T05:58:31.455Z,2.33
2023-04-16T06:00:59.502Z,2.45
2023-04-16T06:03:27.681Z,1.25
2023-04-16T06:05:55.514Z,2.60
2023-04-16T06:08:23.204Z,2.30
2023-04-16T06:10:51.274Z,2.28
2023-04-16T06:13:18.720Z,2.80
2023-04-16T06:15:46.269Z,2.05
2023-04-16T06:18:14.384Z,1.85
2023-04-16T06:20:41.895Z,1.30
2023-04-16T06:23:09.314Z,2.50
2023-04-16T06:25:36.981Z,3.45
2023-04-16T06:28:04.451Z,2.25
2023-04-16T06:30:31.971Z,1.98
2023-04-16T06:32:59.720Z,2.92
2023-04-16T06:35:27.236Z,2.40
2023-04-16T06:37:54.655Z,3.35
2023-04-16T06:40:22.556Z,2.22
2023-04-16T06:42:49.998Z,1.83
2023-04-16T06:45:17.454Z,2.05
2023-04-16T06:47:45.137Z,3.92
2023-04-16T06:50:12.599Z,1.98
2023-04-16T06:52:40.552Z,3.58
2023-04-16T06:55:09.802Z,3.33
2023-04-16T06:57:37.727Z,3.00
2023-04-16T07:00:05.792Z,2.97
2023-04-16T07:02:33.580Z,3.25
2023-04-16T07:05:01.042Z,1.85
2023-04-16T07:07:28.478Z,2.17
2023-04-16T07:09:56.299Z,2.65
2023-04-16T07:12:23.716Z,1.77
2023-04-16T07:14:51.206Z,2.17
2023-04-16T07:17:18.880Z,3.12
2023-04-16T07:19:46.741Z,1.77
2023-04-16T07:22:14.213Z,2.22
2023-04-16T07:24:41.890Z,1.65
2023-04-16T07:27:09.285Z,2.83
2023-04-16T07:29:36.689Z,1.23
2023-04-16T07:32:04.454Z,1.90
2023-04-16T07:34:31.838Z,2.10
2023-04-16T07:36:59.357Z,1.37
2023-04-16T07:39:27.000Z,1.25
2023-04-16T07:41:54.415Z,1.77
2023-04-16T07:44:21.917Z,2.47
2023-04-16T07:46:49.604Z,2.08
2023-04-16T07:49:17.079Z,1.50
2023-04-16T07:51:44.490Z,1.67
2023-04-16T07:54:12.157Z,1.37
2023-04-16T07:56:39.595Z,1.58
2023-04-16T07:59:21.181Z,1.95
2023-04-16T08:01:53.060Z,2.20
2023-04-16T08:04:25.284Z,1.65
2023-04-16T08:06:53.654Z,1.83
2023-04-16T08:09:23.045Z,1.77
2023-04-16T08:11:50.941Z,1.42
2023-04-16T08:14:18.356Z,1.55
2023-04-16T08:16:46.148Z,1.58
2023-04-16T08:19:13.546Z,1.60
2023-04-16T08:21:41.113Z,1.83
2023-04-16T08:24:08.850Z,2.45
2023-04-16T08:26:36.251Z,1.62
2023-04-16T08:29:03.637Z,1.42
2023-04-16T08:31:31.826Z,1.20
2023-04-16T08:34:00.754Z,1.50
2023-04-16T08:36:28.159Z,1.70
2023-04-16T08:38:55.994Z,1.52
2023-04-16T08:41:24.238Z,2.00
2023-04-16T08:43:52.789Z,1.52
2023-04-16T08:46:22.423Z,2.05
2023-04-16T08:48:56.190Z,1.73
2023-04-16T08:51:24.247Z,1.52
2023-04-16T08:54:00.459Z,1.75
2023-04-16T08:56:28.290Z,1.30
2023-04-16T08:58:55.759Z,1.75
2023-04-16T09:01:25.010Z,1.40
2023-04-16T09:03:52.883Z,1.35
2023-04-16T09:06:20.453Z,1.15
2023-04-16T09:08:48.291Z,1.17
2023-04-16T09:11:18.164Z,1.15
2023-04-16T09:13:46.416Z,0.98
2023-04-16T09:16:15.293Z,1.08
2023-04-16T09:18:43.073Z,1.30
2023-04-16T09:21:11.292Z,1.12
2023-04-16T09:23:39.026Z,1.55
2023-04-16T09:26:06.781Z,1.45
2023-04-16T09:28:40.479Z,0.82
2023-04-16T09:31:09.559Z,1.30
2023-04-16T09:33:36.950Z,1.40
2023-04-16T09:36:04.744Z,1.75
2023-04-16T09:38:48.390Z,1.87
2023-04-16T09:41:16.635Z,0.88
2023-04-16T09:43:58.730Z,1.25
2023-04-16T09:46:35.399Z,1.87
2023-04-16T09:49:10.456Z,1.77
2023-04-16T09:51:40.790Z,1.48
2023-04-16T09:54:08.810Z,1.67
2023-04-16T09:56:46.882Z,1.62
2023-04-16T09:59:21.630Z,1.35
2023-04-16T10:01:50.054Z,1.27
2023-04-16T10:04:17.965Z,0.80
2023-04-16T10:06:48.524Z,1.10
2023-04-16T10:09:16.267Z,1.20
2023-04-16T10:11:44.106Z,1.10
2023-04-16T10:14:11.612Z,1.12
2023-04-16T10:16:41.272Z,1.70
2023-04-16T10:19:09.453Z,1.55
2023-04-16T10:21:37.158Z,1.67
2023-04-16T10:24:05.016Z,2.00
2023-04-16T10:26:33.452Z,0.93
2023-04-16T10:29:00.925Z,1.33
2023-04-16T10:31:28.628Z,1.40
2023-04-16T10:33:56.843Z,1.25
2023-04-16T10:36:26.405Z,1.25
2023-04-16T10:38:59.594Z,1.20
2023-04-16T10:41:27.986Z,1.65
2023-04-16T10:44:12.348Z,1.40
2023-04-16T10:46:41.821Z,1.25
2023-04-16T10:49:20.040Z,0.95
2023-04-16T10:51:54.408Z,0.68
2023-04-16T10:54:24.335Z,0.88
2023-04-16T10:56:52.819Z,0.68
2023-04-16T10:59:22.044Z,1.25
2023-04-16T11:01:56.381Z,0.77
2023-04-16T11:04:24.111Z,1.08
2023-04-16T11:07:00.416Z,0.70
2023-04-16T11:09:47.068Z,0.75
2023-04-16T11:12:16.366Z,1.02
2023-04-16T11:14:48.676Z,0.57
2023-04-16T11:17:16.134Z,0.50
2023-04-16T11:19:44.079Z,1.17
2023-04-16T11:22:17.253Z,0.50
2023-04-16T11:24:46.537Z,0.62
2023-04-16T11:27:15.242Z,0.80
2023-04-16T11:29:43.186Z,1.05
2023-04-16T11:32:21.314Z,1.48
2023-04-16T11:34:48.746Z,0.95
2023-04-16T11:37:20.323Z,0.62
2023-04-16T11:39:51.986Z,1.12
2023-04-16T11:42:22.629Z,0.93
2023-04-16T11:44:55.588Z,0.95
2023-04-16T11:47:24.554Z,1.10
2023-04-16T11:49:52.234Z,0.85
2023-04-16T11:52:35.363Z,1.33
2023-04-16T11:55:03.515Z,1.40
2023-04-16T11:57:32.029Z,1.00
2023-04-16T12:00:02.028Z,0.88
2023-04-16T12:02:41.126Z,0.65
2023-04-16T12:05:34.997Z,0.85
2023-04-16T12:08:04.454Z,0.70
2023-04-16T12:10:36.904Z,1.08
2023-04-16T12:13:17.433Z,1.20
2023-04-16T12:15:51.724Z,0.85
2023-04-16T12:18:22.464Z,1.20
2023-04-16T12:20:53.241Z,1.80
2023-04-16T12:23:28.793Z,1.05
2023-04-16T12:26:00.017Z,1.40
2023-04-16T12:28:32.052Z,1.05
2023-04-16T12:31:00.606Z,0.95
2023-04-16T12:33:28.344Z,1.25
2023-04-16T12:35:55.819Z,1.80
2023-04-16T12:38:24.642Z,1.15
2023-04-16T12:40:52.411Z,1.02
2023-04-16T12:43:21.457Z,1.55
2023-04-16T12:45:49.510Z,1.50
2023-04-16T12:48:17.047Z,1.85
2023-04-16T12:50:44.694Z,1.20
2023-04-16T12:53:12.410Z,0.98
2023-04-16T12:55:39.810Z,0.93
2023-04-16T12:58:07.251Z,0.93
2023-04-16T13:00:34.982Z,1.08
2023-04-16T13:03:02.465Z,1.08
2023-04-16T13:05:29.889Z,0.82
2023-04-16T13:07:57.581Z,1.00
2023-04-16T13:10:25.060Z,1.08
2023-04-16T13:12:52.460Z,0.73
2023-04-16T13:15:20.158Z,1.15
2023-04-16T13:17:47.627Z,0.95
2023-04-16T13:20:15.109Z,1.50
2023-04-16T13:22:42.932Z,1.73
2023-04-16T13:25:10.301Z,1.58
2023-04-16T13:27:37.709Z,1.30
2023-04-16T13:30:06.124Z,0.90
2023-04-16T13:32:33.609Z,1.30
2023-04-16T13:35:01.159Z,0.85
2023-04-16T13:37:28.977Z,0.70
2023-04-16T13:39:56.674Z,0.88
2023-04-16T13:42:24.126Z,0.80
2023-04-16T13:44:54.252Z,1.40
2023-04-16T13:47:22.020Z,3.10
2023-04-16T13:49:49.656Z,1.33
2023-04-16T13:52:17.430Z,0.98
2023-04-16T13:54:44.904Z,1.35
2023-04-16T13:57:19.893Z,1.02
2023-04-16T13:59:47.665Z,0.80
2023-04-16T14:02:15.233Z,0.85
2023-04-16T14:04:43.126Z,1.17
2023-04-16T14:07:10.613Z,1.62
2023-04-16T14:09:38.078Z,0.62
2023-04-16T14:12:06.138Z,0.98
2023-04-16T14:14:33.576Z,1.50
2023-04-16T14:17:03.234Z,1.08
2023-04-16T14:19:31.011Z,0.70
2023-04-16T14:21:58.414Z,1.33
2023-04-16T14:24:26.054Z,0.62
2023-04-16T14:26:53.831Z,0.77
2023-04-16T14:29:21.278Z,0.75
2023-04-16T14:31:50.214Z,0.68
2023-04-16T14:34:18.184Z,0.98
2023-04-16T14:36:45.903Z,0.80
2023-04-16T14:39:13.500Z,0.77
2023-04-16T14:41:41.237Z,0.70
2023-04-16T14:44:08.723Z,0.90
2023-04-16T14:46:36.222Z,0.57
2023-04-16T14:49:04.371Z,0.80
2023-04-16T14:51:31.982Z,1.05
2023-04-16T14:53:59.614Z,0.93
2023-04-16T14:56:27.277Z,0.62
2023-04-16T14:58:54.729Z,0.68
2023-04-16T15:01:22.290Z,1.10
2023-04-16T15:03:50.552Z,0.93
2023-04-16T15:06:19.083Z,0.88
2023-04-16T15:08:46.605Z,1.55
2023-04-16T15:11:14.307Z,0.85
2023-04-16T15:13:41.972Z,0.57
2023-04-16T15:16:09.472Z,1.02
2023-04-16T15:18:37.170Z,1.35
2023-04-16T15:21:04.606Z,0.65
2023-04-16T15:23:32.062Z,1.15
2023-04-16T15:25:59.744Z,1.30
2023-04-16T15:28:27.228Z,0.80
2023-04-16T15:30:54.987Z,1.10
2023-04-16T15:33:22.716Z,1.08
2023-04-16T15:35:51.669Z,0.82
2023-04-16T15:38:21.349Z,1.00
2023-04-16T15:40:49.229Z,1.20
2023-04-16T15:43:16.852Z,0.80
2023-04-16T15:45:44.893Z,1.37
2023-04-16T15:48:12.707Z,1.15
2023-04-16T15:50:40.192Z,0.75
2023-04-16T15:53:07.894Z,0.70
2023-04-16T15:55:36.191Z,0.68
2023-04-16T15:58:03.576Z,0.88
2023-04-16T16:00:31.166Z,0.73
2023-04-16T16:02:58.958Z,1.33
2023-04-16T16:05:27.240Z,1.20
2023-04-16T16:07:54.845Z,0.73
2023-04-16T16:10:22.873Z,0.82
2023-04-16T16:12:50.507Z,0.55
2023-04-16T16:15:17.910Z,0.73
2023-04-16T16:17:45.698Z,0.65
2023-04-16T16:20:13.365Z,0.65
2023-04-16T16:22:41.867Z,1.00
2023-04-16T16:25:10.320Z,0.85
2023-04-16T16:27:37.950Z,1.90
2023-04-16T16:30:07.386Z,1.85
2023-04-16T16:32:35.195Z,1.52
2023-04-16T16:35:02.774Z,1.37
2023-04-16T16:37:30.373Z,0.62
2023-04-16T16:39:58.197Z,1.02
2023-04-16T16:42:26.658Z,1.60
2023-04-16T16:44:56.706Z,1.12
2023-04-16T16:47:25.261Z,1.42
2023-04-16T16:49:54.685Z,0.95
2023-04-16T16:52:23.974Z,0.75
2023-04-16T16:54:53.748Z,0.93
2023-04-16T16:57:21.770Z,1.05
2023-04-16T16:59:50.470Z,1.35
2023-04-16T17:02:19.042Z,1.20
2023-04-16T17:04:46.674Z,1.65
2023-04-16T17:07:14.103Z,1.30
2023-04-16T17:09:41.943Z,1.12
2023-04-16T17:12:09.569Z,1.12
2023-04-16T17:14:37.198Z,1.27
2023-04-16T17:17:04.892Z,1.25
2023-04-16T17:19:32.390Z,2.03
2023-04-16T17:22:00.329Z,0.85
2023-04-16T17:24:28.262Z,0.82
2023-04-16T17:26:55.891Z,0.85
2023-04-16T17:29:26.078Z,1.02
2023-04-16T17:31:54.043Z,1.58
2023-04-16T17:34:21.709Z,1.87
2023-04-16T17:36:52.404Z,1.00
2023-04-16T17:39:20.970Z,1.05
2023-04-16T17:41:54.107Z,1.10
2023-04-16T17:44:23.251Z,0.90
2023-04-16T17:46:50.866Z,1.33
2023-04-16T17:49:18.455Z,1.23
2023-04-16T17:51:46.488Z,1.50
2023-04-16T17:54:14.088Z,1.55
2023-04-16T17:56:41.488Z,1.35
2023-04-16T17:59:09.379Z,1.33
2023-04-16T18:01:37.063Z,1.75
2023-04-16T18:04:04.993Z,1.05
2023-04-16T18:06:32.739Z,1.17
2023-04-16T18:09:00.365Z,1.58
2023-04-16T18:11:30.034Z,1.60
2023-04-16T18:13:58.822Z,2.03
2023-04-16T18:16:26.350Z,2.62
2023-04-16T18:18:54.541Z,2.55
2023-04-16T18:21:22.075Z,1.50
2023-04-16T18:23:49.651Z,1.62
2023-04-16T18:26:20.501Z,1.58
2023-04-16T18:28:49.625Z,1.20
2023-04-16T18:31:20.859Z,2.58
2023-04-16T18:33:55.646Z,1.58
2023-04-16T18:36:26.908Z,2.22
2023-04-16T18:39:02.042Z,1.20
2023-04-16T18:41:30.911Z,1.58
2023-04-16T18:43:58.683Z,1.67
2023-04-16T18:46:27.592Z,1.52
2023-04-16T18:48:55.797Z,1.73
2023-04-16T18:51:23.534Z,1.50
2023-04-16T18:53:51.306Z,1.12
2023-04-16T18:56:19.230Z,1.58
2023-04-16T18:58:47.791Z,1.35
2023-04-16T19:01:16.646Z,1.62
2023-04-16T19:03:44.482Z,1.15
2023-04-16T19:06:11.925Z,1.35
2023-04-16T19:08:39.536Z,1.33
2023-04-16T19:11:07.478Z,1.20
2023-04-16T19:13:35.120Z,1.45
2023-04-16T19:16:04.248Z,6.05
2023-04-16T19:18:32.228Z,8.00
2023-04-16T19:21:00.921Z,1.67
2023-04-16T19:23:29.172Z,1.30
2023-04-16T19:25:57.225Z,1.50
2023-04-16T19:28:25.529Z,1.73
2023-04-16T19:30:53.589Z,1.48
2023-04-16T19:33:21.504Z,0.93
2023-04-16T19:35:48.990Z,1.70
2023-04-16T19:38:16.657Z,1.45
2023-04-16T19:40:46.216Z,1.27
2023-04-16T19:43:13.945Z,1.23
2023-04-16T19:45:46.127Z,1.02
2023-04-16T19:48:14.481Z,1.73
2023-04-16T19:50:42.284Z,1.37
2023-04-16T19:53:13.878Z,2.30
2023-04-16T19:55:42.094Z,4.00
2023-04-16T19:58:09.990Z,1.73
2023-04-16T20:00:38.888Z,1.10
2023-04-16T20:03:06.738Z,1.48
2023-04-16T20:05:34.195Z,1.77
2023-04-16T20:08:01.627Z,2.15
2023-04-16T20:10:31.422Z,1.35
2023-04-16T20:12:59.185Z,1.15
2023-04-16T20:15:26.672Z,1.45
2023-04-16T20:17:56.091Z,1.17
2023-04-16T20:20:23.799Z,1.17
2023-04-16T20:22:51.360Z,2.37
2023-04-16T20:25:19.342Z,1.70
2023-04-16T20:27:47.401Z,2.22
2023-04-16T20:30:15.261Z,0.73
2023-04-16T20:32:42.996Z,1.45
2023-04-16T20:35:11.591Z,1.30
2023-04-16T20:37:39.867Z,1.90
2023-04-16T20:40:09.359Z,2.08
2023-04-16T20:42:36.824Z,1.02
2023-04-16T20:45:04.934Z,0.98
2023-04-16T20:47:34.855Z,1.35
2023-04-16T20:50:02.925Z,1.25
2023-04-16T20:52:30.784Z,0.73
2023-04-16T20:54:58.617Z,1.27
2023-04-16T20:57:28.058Z,1.40
2023-04-16T20:59:56.453Z,1.10
2023-04-16T21:02:24.438Z,1.00
2023-04-16T21:04:52.166Z,2.75
2023-04-16T21:07:19.726Z,1.15
2023-04-16T21:09:47.432Z,1.20
2023-04-16T21:12:14.858Z,1.35
2023-04-16T21:14:42.241Z,2.08
2023-04-16T21:17:09.920Z,1.85
2023-04-16T21:19:37.295Z,2.40
2023-04-16T21:22:04.762Z,1.98
2023-04-16T21:24:32.530Z,1.20
2023-04-16T21:27:00.644Z,1.37
2023-04-16T21:29:28.209Z,1.08
2023-04-16T21:31:55.976Z,1.20
2023-04-16T21:34:23.456Z,1.25
2023-04-16T21:36:50.988Z,1.45
2023-04-16T21:39:19.859Z,0.93
2023-04-16T21:41:47.726Z,0.75
2023-04-16T21:44:15.430Z,0.60
2023-04-16T21:46:43.127Z,0.88
2023-04-16T21:49:10.687Z,0.62
2023-04-16T21:51:40.022Z,0.52
2023-04-16T21:54:08.171Z,1.60
2023-04-16T21:56:35.572Z,0.77
2023-04-16T21:59:03.090Z,3.47
2023-04-16T22:01:30.937Z,0.57
2023-04-16T22:03:58.968Z,1.00
2023-04-16T22:06:27.179Z,0.70
2023-04-16T22:08:54.594Z,0.90
2023-04-16T22:11:22.585Z,1.10
2023-04-16T22:13:50.227Z,0.88
2023-04-16T22:16:17.637Z,0.70
2023-04-16T22:18:46.334Z,0.90
2023-04-16T22:21:13.790Z,0.75
2023-04-16T22:23:41.126Z,0.95
2023-04-16T22:26:09.205Z,0.77
2023-04-16T22:28:36.612Z,0.90
2023-04-16T22:31:04.058Z,0.88
2023-04-16T22:33:31.673Z,1.23
2023-04-16T22:36:00.208Z,0.50
2023-04-16T22:38:27.611Z,0.80
2023-04-16T22:40:55.391Z,0.68
2023-04-16T22:43:22.995Z,0.62
2023-04-16T22:45:50.449Z,0.93
2023-04-16T22:48:18.676Z,1.48
2023-04-16T22:50:48.609Z,0.77
2023-04-16T22:53:16.131Z,0.93
2023-04-16T22:55:43.848Z,0.50
2023-04-16T22:58:11.289Z,0.82
2023-04-16T23:00:39.288Z,0.68
2023-04-16T23:03:07.218Z,1.23
2023-04-16T23:05:34.775Z,0.75
2023-04-16T23:08:02.623Z,0.85
2023-04-16T23:10:30.313Z,1.40
2023-04-16T23:12:57.734Z,1.50
2023-04-16T23:15:25.162Z,1.05
2023-04-16T23:17:52.863Z,1.20
2023-04-16T23:20:20.376Z,1.00
2023-04-16T23:22:47.811Z,0.85
2023-04-16T23:25:15.630Z,1.40
2023-04-16T23:27:42.986Z,0.88
2023-04-16T23:30:10.730Z,1.50
2023-04-16T23:32:38.646Z,1.20
2023-04-16T23:35:06.632Z,1.12
2023-04-16T23:37:34.037Z,1.75
2023-04-16T23:40:01.898Z,0.95
2023-04-16T23:42:29.299Z,0.95
2023-04-16T23:44:56.710Z,1.25
2023-04-16T23:47:24.508Z,1.00
2023-04-16T23:49:51.878Z,1.27
2023-04-16T23:52:19.292Z,1.73
2023-04-16T23:54:46.934Z,0.88
2023-04-16T23:57:15.185Z,0.90
2023-04-16T23:59:42.923Z,0.88
